UAE29U LSGG-OMDB
Flight info
| Callsign | UAE29U |
|---|---|
| Flight time | N/A |
| Altitude | 35000 |
| Route | MEDAM DCT NITAM DCT MOGBO DCT BAKRO DCT MEDAL DCT RAVAL DCT ELVIN DCT RIFFI DCT PNZ DCT BELIX DCT SALUN N705 BOPIX N710 TAKRI M720 FYM M872 SIKNO/N0488F370 M872 BDB Y214 RAPMA DCT KUVSO DCT KATIT DCT PEKEM M628 RIGIL G783 ELUDA/N0500F350 G783 ASPED Q308 KIPOK Q568 IMPED |
| Aircraft | B77W/H-SDE1E2E3FGHIJ2J3J4J5M1RWXY/LB1D1 |
Departure
| Time | N/A |
|---|---|
| Airport | Geneva International Airport (LSGG) |
Arrival
| Time | 2026-05-07 20:57 |
|---|---|
| Airport | Dubai International Airport (OMDB) |
| Time | Latitude | Longitude | Altitude | Speed | Heading |
|---|---|---|---|---|---|
| 2026-05-07 20:33 | 23.93968 | 55.51105 | 35783 ft | 507 kts | 13° |
| 2026-05-07 20:33 | 23.96207 | 55.51797 | 35611 ft | 504 kts | 16° |
| 2026-05-07 20:33 | 23.99451 | 55.53201 | 35171 ft | 500 kts | 24° |
| 2026-05-07 20:34 | 24.03449 | 55.55729 | 34107 ft | 506 kts | 33° |
| 2026-05-07 20:34 | 24.06232 | 55.58128 | 33035 ft | 513 kts | 41° |
| 2026-05-07 20:34 | 24.08881 | 55.60782 | 31948 ft | 519 kts | 41° |
| 2026-05-07 20:34 | 24.11528 | 55.63483 | 30942 ft | 523 kts | 41° |
| 2026-05-07 20:35 | 24.14198 | 55.66200 | 30046 ft | 524 kts | 41° |
| 2026-05-07 20:35 | 24.15965 | 55.67984 | 29529 ft | 521 kts | 41° |
| 2026-05-07 20:35 | 24.18619 | 55.70642 | 28944 ft | 512 kts | 41° |
| 2026-05-07 20:35 | 24.21236 | 55.73244 | 28405 ft | 504 kts | 41° |
| 2026-05-07 20:36 | 24.23818 | 55.75802 | 27821 ft | 498 kts | 41° |
| 2026-05-07 20:36 | 24.27194 | 55.79149 | 27022 ft | 491 kts | 41° |
| 2026-05-07 20:36 | 24.28899 | 55.80840 | 26632 ft | 487 kts | 41° |
| 2026-05-07 20:36 | 24.31396 | 55.83321 | 26069 ft | 482 kts | 41° |
| 2026-05-07 20:37 | 24.33867 | 55.85780 | 25502 ft | 477 kts | 41° |
| 2026-05-07 20:37 | 24.36280 | 55.88182 | 24959 ft | 473 kts | 41° |
| 2026-05-07 20:37 | 24.38708 | 55.90599 | 24392 ft | 470 kts | 42° |
| 2026-05-07 20:37 | 24.41101 | 55.92989 | 23790 ft | 461 kts | 42° |
| 2026-05-07 20:38 | 24.43458 | 55.95344 | 23017 ft | 457 kts | 42° |
| 2026-05-07 20:38 | 24.45798 | 55.97686 | 22270 ft | 451 kts | 42° |
| 2026-05-07 20:38 | 24.48098 | 55.99988 | 21599 ft | 444 kts | 43° |
| 2026-05-07 20:38 | 24.50362 | 56.02254 | 20880 ft | 437 kts | 43° |
| 2026-05-07 20:39 | 24.52588 | 56.04483 | 20194 ft | 430 kts | 43° |
| 2026-05-07 20:39 | 24.54749 | 56.06647 | 19519 ft | 423 kts | 43° |
| 2026-05-07 20:39 | 24.56913 | 56.08810 | 18843 ft | 418 kts | 42° |
| 2026-05-07 20:39 | 24.59191 | 56.10759 | 18150 ft | 413 kts | 32° |
| 2026-05-07 20:40 | 24.61749 | 56.12159 | 17400 ft | 409 kts | 22° |
| 2026-05-07 20:40 | 24.64455 | 56.13067 | 16665 ft | 406 kts | 12° |
| 2026-05-07 20:40 | 24.67231 | 56.13543 | 15936 ft | 402 kts | 9° |
| 2026-05-07 20:40 | 24.69986 | 56.13992 | 15214 ft | 400 kts | 10° |
| 2026-05-07 20:41 | 24.72724 | 56.14472 | 14535 ft | 397 kts | 11° |
| 2026-05-07 20:41 | 24.75440 | 56.14961 | 13877 ft | 394 kts | 11° |
| 2026-05-07 20:41 | 24.78156 | 56.15217 | 13299 ft | 390 kts | 358° |
| 2026-05-07 20:41 | 24.80790 | 56.14803 | 13300 ft | 387 kts | 348° |
| 2026-05-07 20:42 | 24.83329 | 56.13870 | 13260 ft | 384 kts | 337° |
| 2026-05-07 20:42 | 24.85711 | 56.12649 | 13169 ft | 370 kts | 336° |
| 2026-05-07 20:42 | 24.88001 | 56.11465 | 13061 ft | 357 kts | 336° |
| 2026-05-07 20:42 | 24.90207 | 56.10341 | 12971 ft | 342 kts | 336° |
| 2026-05-07 20:43 | 24.92332 | 56.09275 | 12896 ft | 329 kts | 337° |
| 2026-05-07 20:43 | 24.94370 | 56.08258 | 12787 ft | 314 kts | 336° |
| 2026-05-07 20:43 | 24.96317 | 56.07287 | 12637 ft | 302 kts | 336° |
| 2026-05-07 20:43 | 24.98044 | 56.06052 | 12408 ft | 294 kts | 314° |
| 2026-05-07 20:44 | 24.99381 | 56.04381 | 12144 ft | 288 kts | 311° |
| 2026-05-07 20:44 | 25.00696 | 56.02728 | 11848 ft | 285 kts | 312° |
| 2026-05-07 20:44 | 25.02015 | 56.01104 | 11523 ft | 283 kts | 312° |
| 2026-05-07 20:44 | 25.03311 | 55.99525 | 11322 ft | 280 kts | 312° |
| 2026-05-07 20:45 | 25.04618 | 55.97939 | 11189 ft | 278 kts | 312° |
| 2026-05-07 20:45 | 25.05910 | 55.96370 | 10786 ft | 274 kts | 312° |
| 2026-05-07 20:45 | 25.07180 | 55.94820 | 10218 ft | 271 kts | 311° |
| 2026-05-07 20:45 | 25.08430 | 55.93286 | 9604 ft | 267 kts | 311° |
| 2026-05-07 20:46 | 25.09661 | 55.91773 | 8948 ft | 263 kts | 311° |
| 2026-05-07 20:46 | 25.10898 | 55.90255 | 8463 ft | 269 kts | 311° |
| 2026-05-07 20:46 | 25.12136 | 55.88734 | 8283 ft | 263 kts | 311° |
| 2026-05-07 20:46 | 25.13349 | 55.87245 | 8052 ft | 260 kts | 311° |
| 2026-05-07 20:47 | 25.14560 | 55.85757 | 7759 ft | 261 kts | 311° |
| 2026-05-07 20:47 | 25.15758 | 55.84262 | 7509 ft | 258 kts | 307° |
| 2026-05-07 20:47 | 25.16712 | 55.82621 | 7356 ft | 250 kts | 292° |
| 2026-05-07 20:47 | 25.17045 | 55.80816 | 7281 ft | 238 kts | 273° |
| 2026-05-07 20:48 | 25.17107 | 55.79059 | 7247 ft | 221 kts | 272° |
| 2026-05-07 20:48 | 25.17159 | 55.77405 | 7314 ft | 209 kts | 272° |
| 2026-05-07 20:48 | 25.17092 | 55.75853 | 7171 ft | 200 kts | 257° |
| 2026-05-07 20:48 | 25.16708 | 55.74405 | 6945 ft | 193 kts | 253° |
| 2026-05-07 20:49 | 25.16287 | 55.73018 | 6651 ft | 190 kts | 252° |
| 2026-05-07 20:49 | 25.15864 | 55.71633 | 6313 ft | 190 kts | 252° |
| 2026-05-07 20:49 | 25.15440 | 55.70252 | 5943 ft | 190 kts | 252° |
| 2026-05-07 20:49 | 25.14802 | 55.69008 | 5518 ft | 189 kts | 222° |
| 2026-05-07 20:50 | 25.13657 | 55.68210 | 5213 ft | 201 kts | 212° |
| 2026-05-07 20:50 | 25.12425 | 55.67425 | 4864 ft | 207 kts | 212° |
| 2026-05-07 20:50 | 25.11194 | 55.66634 | 4472 ft | 208 kts | 212° |
| 2026-05-07 20:50 | 25.10015 | 55.65740 | 4039 ft | 204 kts | 230° |
| 2026-05-07 20:51 | 25.09479 | 55.64343 | 3623 ft | 200 kts | 268° |
| 2026-05-07 20:51 | 25.09873 | 55.62907 | 3237 ft | 200 kts | 304° |
| 2026-05-07 20:51 | 25.10789 | 55.61758 | 3082 ft | 204 kts | 307° |
| 2026-05-07 20:51 | 25.11689 | 55.60546 | 3033 ft | 202 kts | 306° |
| 2026-05-07 20:52 | 25.12518 | 55.59339 | 3015 ft | 193 kts | 303° |
| 2026-05-07 20:52 | 25.13257 | 55.58118 | 3011 ft | 191 kts | 300° |
| 2026-05-07 20:52 | 25.13975 | 55.56857 | 3024 ft | 196 kts | 300° |
| 2026-05-07 20:52 | 25.14686 | 55.55583 | 3013 ft | 191 kts | 300° |
| 2026-05-07 20:53 | 25.15359 | 55.54373 | 2942 ft | 181 kts | 300° |
| 2026-05-07 20:53 | 25.15990 | 55.53233 | 2732 ft | 173 kts | 300° |
| 2026-05-07 20:53 | 25.16622 | 55.52089 | 2505 ft | 175 kts | 300° |
| 2026-05-07 20:53 | 25.17252 | 55.50953 | 2284 ft | 171 kts | 300° |
| 2026-05-07 20:54 | 25.17862 | 55.49850 | 2049 ft | 164 kts | 300° |
| 2026-05-07 20:54 | 25.18427 | 55.48832 | 1853 ft | 147 kts | 301° |
| 2026-05-07 20:54 | 25.18931 | 55.47923 | 1678 ft | 135 kts | 301° |
| 2026-05-07 20:54 | 25.19416 | 55.47030 | 1501 ft | 135 kts | 300° |
| 2026-05-07 20:55 | 25.19896 | 55.46139 | 1338 ft | 135 kts | 301° |
| 2026-05-07 20:55 | 25.20386 | 55.45245 | 1173 ft | 136 kts | 301° |
| 2026-05-07 20:55 | 25.20878 | 55.44358 | 999 ft | 140 kts | 301° |
| 2026-05-07 20:55 | 25.21400 | 55.43427 | 846 ft | 145 kts | 301° |
| 2026-05-07 20:56 | 25.21934 | 55.42470 | 667 ft | 147 kts | 301° |
| 2026-05-07 20:56 | 25.22469 | 55.41499 | 475 ft | 148 kts | 301° |
| 2026-05-07 20:56 | 25.22998 | 55.40544 | 284 ft | 144 kts | 301° |
| 2026-05-07 20:56 | 25.23515 | 55.39616 | 67 ft | 141 kts | 301° |
| 2026-05-07 20:57 | 25.23999 | 55.38747 | 29 ft | 121 kts | 302° |
| 2026-05-07 20:57 | 25.24373 | 55.38075 | 30 ft | 86 kts | 301° |
| 2026-05-07 20:57 | 25.24619 | 55.37633 | 27 ft | 52 kts | 301° |
| 2026-05-07 20:57 | 25.24755 | 55.37387 | 28 ft | 30 kts | 301° |
| 2026-05-07 20:58 | 25.24862 | 55.37194 | 29 ft | 26 kts | 301° |
| 2026-05-07 20:58 | 25.24947 | 55.37039 | 29 ft | 19 kts | 300° |
| 2026-05-07 20:58 | 25.25001 | 55.36903 | 29 ft | 19 kts | 286° |
| 2026-05-07 20:58 | 25.25019 | 55.36778 | 27 ft | 13 kts | 273° |
| 2026-05-07 20:59 | 25.25021 | 55.36693 | 27 ft | 9 kts | 271° |
| 2026-05-07 20:59 | 25.25023 | 55.36622 | 26 ft | 10 kts | 272° |
| 2026-05-07 20:59 | 25.25026 | 55.36546 | 26 ft | 10 kts | 274° |
| 2026-05-07 20:59 | 25.25035 | 55.36468 | 26 ft | 10 kts | 281° |
| 2026-05-07 21:00 | 25.25052 | 55.36398 | 26 ft | 10 kts | 288° |
| 2026-05-07 21:00 | 25.25065 | 55.36339 | 30 ft | 7 kts | 264° |
| 2026-05-07 21:00 | 25.25033 | 55.36296 | 28 ft | 8 kts | 214° |
| 2026-05-07 21:00 | 25.24985 | 55.36264 | 30 ft | 8 kts | 212° |
| 2026-05-07 21:01 | 25.24948 | 55.36238 | 30 ft | 5 kts | 211° |
| 2026-05-07 21:01 | 25.24928 | 55.36225 | 29 ft | 2 kts | 211° |
| 2026-05-07 21:01 | 25.24923 | 55.36222 | 29 ft | 0 kts | 211° |